Stonefort, Illinois
Current Conditions -  °F | °C
As of 3:35 PM on Friday 28 Nov 2014 (Local Time) from KHSB Reporting Station
Clear Clear  
Wind Chill: 40°   Ceiling: Unl
Heat Index: 46°   Visibility: 10mi
Dew Point: 29°   Wind: 13mph
Humidity: 52%   Direction: 190°S
Pressure: 30.1"   Gusts: 20mph
Location:  37.62°N, 88.71°W
Report Text: KHSB 282135Z AUTO 19011G17KT 10SM CLR 08/M02 A3010 RMK AO2 T00751019
Loading
Personal Weather Stations






























Interactive Weather Map New forecast layout! Learn more

10-Day Weather Forecast

Advertisements
Track Severe Weather on mobile